Time;durP1;ratioP1;P1;durP2;ratioP2;P2;SDS_P1;SDS_P2;PMS_P1;PMS_P2;Temp;Humidity;BMP_temperature;BMP_pressure;BME280_temperature;BME280_humidity;BME280_pressure;Samples;Min_cycle;Max_cycle;Signal;HPM_P1;HPM_P2
2023/12/16 00:02:31;;;;;;;22.52;6.55;;;6.30;99.90;;;;;;6322599;28;20059;-86
2023/12/16 00:05:33;;;;;;;26.38;6.60;;;6.30;99.90;;;;;;6319081;28;20414;-87
2023/12/16 00:08:35;;;;;;;29.05;6.72;;;6.20;99.90;;;;;;6309024;28;20093;-90
2023/12/16 00:11:37;;;;;;;30.27;6.80;;;6.30;99.90;;;;;;6300279;28;20053;-87
2023/12/16 00:14:38;;;;;;;29.05;6.82;;;6.30;99.90;;;;;;6319975;28;20062;-86
2023/12/16 00:17:40;;;;;;;32.53;7.03;;;6.30;99.90;;;;;;6320230;28;20048;-86
2023/12/16 00:20:43;;;;;;;25.05;6.13;;;6.30;99.90;;;;;;6320147;28;20396;-87
2023/12/16 00:23:44;;;;;;;24.15;5.80;;;6.30;99.90;;;;;;6305565;28;20118;-86
2023/12/16 00:26:46;;;;;;;26.08;6.30;;;6.30;99.90;;;;;;6318669;28;20090;-84
2023/12/16 00:29:48;;;;;;;24.75;5.20;;;6.40;99.90;;;;;;6318765;28;20659;-86
2023/12/16 00:32:49;;;;;;;22.38;4.78;;;6.40;99.90;;;;;;6319908;28;20052;-85
2023/12/16 00:35:51;;;;;;;28.50;4.88;;;6.50;99.90;;;;;;6319821;28;20419;-87
2023/12/16 00:38:52;;;;;;;21.85;3.88;;;6.40;99.90;;;;;;6319893;28;20056;-86
2023/12/16 00:41:54;;;;;;;24.80;4.63;;;6.50;99.90;;;;;;6293653;28;20059;-86
2023/12/16 00:44:56;;;;;;;17.00;4.10;;;6.50;99.90;;;;;;6317634;28;20522;-86
2023/12/16 00:47:57;;;;;;;24.27;3.80;;;6.70;99.90;;;;;;6319659;28;20055;-85
2023/12/16 00:51:00;;;;;;;21.80;3.60;;;6.70;99.90;;;;;;6295206;28;20052;-85
2023/12/16 00:54:01;;;;;;;26.10;4.50;;;6.70;99.90;;;;;;6315923;28;20064;-86
2023/12/16 00:57:03;;;;;;;20.08;4.32;;;6.70;99.90;;;;;;6319319;28;20048;-86
2023/12/16 01:00:05;;;;;;;19.65;4.13;;;6.90;99.90;;;;;;6293457;28;20064;-86
2023/12/16 01:03:06;;;;;;;26.10;4.22;;;6.90;99.90;;;;;;6315292;28;20048;-86
2023/12/16 01:06:08;;;;;;;19.67;3.75;;;6.90;99.90;;;;;;6319117;28;20056;-86
2023/12/16 01:09:10;;;;;;;17.73;4.40;;;7.00;99.90;;;;;;6318492;28;20093;-86
2023/12/16 01:12:13;;;;;;;15.80;3.67;;;7.00;99.90;;;;;;6294566;28;20056;-90
2023/12/16 01:15:14;;;;;;;21.90;3.60;;;7.00;99.90;;;;;;6315269;28;20086;-84
2023/12/16 01:18:16;;;;;;;21.67;4.18;;;7.00;99.90;;;;;;6316670;28;20492;-85
2023/12/16 01:21:18;;;;;;;22.65;3.53;;;7.00;99.90;;;;;;6318499;28;20499;-84
2023/12/16 01:24:19;;;;;;;22.48;3.70;;;7.00;99.90;;;;;;6317189;28;20091;-84
2023/12/16 01:27:21;;;;;;;19.48;3.63;;;7.00;99.90;;;;;;6318344;28;20628;-84
2023/12/16 01:30:24;;;;;;;20.40;3.80;;;7.00;99.90;;;;;;6316748;28;20044;-85
2023/12/16 01:33:26;;;;;;;15.43;3.63;;;7.10;99.90;;;;;;6292824;28;20803;-84
2023/12/16 01:36:28;;;;;;;18.13;3.55;;;7.20;99.90;;;;;;6317379;28;20048;-83
2023/12/16 01:39:29;;;;;;;11.48;3.00;;;7.20;99.90;;;;;;6316757;28;20075;-84
2023/12/16 01:42:31;;;;;;;18.27;3.38;;;7.40;99.90;;;;;;6316432;28;20052;-85
2023/12/16 01:45:33;;;;;;;17.02;3.22;;;7.50;99.90;;;;;;6315743;28;20514;-85
2023/12/16 01:48:34;;;;;;;15.10;3.67;;;7.70;99.90;;;;;;6318211;28;20051;-84
2023/12/16 01:51:36;;;;;;;13.52;3.08;;;7.70;99.90;;;;;;6319641;28;20139;-84
2023/12/16 01:54:38;;;;;;;11.02;3.20;;;7.90;99.90;;;;;;6322115;28;20052;-85
2023/12/16 01:57:39;;;;;;;10.40;2.78;;;8.00;99.90;;;;;;6300388;28;20056;-84
2023/12/16 02:00:42;;;;;;;14.02;3.35;;;8.00;99.90;;;;;;6316726;28;20079;-84
2023/12/16 02:03:43;;;;;;;15.60;3.05;;;8.10;99.90;;;;;;6310876;28;20056;-84
2023/12/16 02:06:45;;;;;;;13.90;2.85;;;8.10;99.90;;;;;;6322305;28;20155;-83
2023/12/16 02:09:47;;;;;;;12.63;3.10;;;8.10;99.90;;;;;;6323649;28;20044;-85
2023/12/16 02:12:49;;;;;;;18.45;3.17;;;8.30;99.90;;;;;;6302307;28;20077;-86
2023/12/16 02:15:51;;;;;;;14.27;2.58;;;8.30;99.90;;;;;;6321557;28;20044;-86
2023/12/16 02:18:52;;;;;;;10.90;2.53;;;8.30;99.90;;;;;;6301913;28;20150;-87
2023/12/16 02:21:54;;;;;;;12.02;2.53;;;8.40;99.90;;;;;;6326220;28;20059;-85
2023/12/16 02:24:56;;;;;;;11.57;2.80;;;8.40;99.90;;;;;;6297733;28;20052;-85
2023/12/16 02:27:58;;;;;;;17.15;3.38;;;8.40;99.90;;;;;;6315398;28;20040;-86
2023/12/16 02:30:59;;;;;;;15.65;2.63;;;8.50;99.90;;;;;;6297477;28;20058;-86
2023/12/16 02:34:01;;;;;;;12.07;2.72;;;8.40;99.90;;;;;;6298234;28;20052;-87
2023/12/16 02:37:06;;;;;;;14.38;2.70;;;8.50;99.90;;;;;;6322400;28;20044;-85
2023/12/16 02:40:07;;;;;;;9.07;2.60;;;8.40;99.90;;;;;;6321190;28;20055;-86
2023/12/16 02:43:09;;;;;;;13.65;2.42;;;8.40;99.90;;;;;;6314439;28;20058;-85
2023/12/16 02:46:11;;;;;;;11.77;2.33;;;8.50;99.90;;;;;;6297926;28;20407;-83
2023/12/16 02:49:12;;;;;;;9.50;2.30;;;8.60;99.90;;;;;;6322117;28;20680;-85
2023/12/16 02:52:14;;;;;;;12.38;2.75;;;8.60;99.90;;;;;;6297615;28;20048;-85
2023/12/16 02:55:18;;;;;;;8.73;2.50;;;8.60;99.90;;;;;;6320248;28;20056;-85
2023/12/16 02:58:20;;;;;;;11.48;2.67;;;8.60;99.90;;;;;;6300062;28;20048;-85
2023/12/16 03:01:21;;;;;;;10.68;2.40;;;8.50;99.90;;;;;;6319403;28;20062;-86
2023/12/16 03:04:23;;;;;;;9.68;2.72;;;8.50;99.90;;;;;;6305648;28;20144;-86
2023/12/16 03:07:25;;;;;;;11.30;2.67;;;8.50;99.90;;;;;;6315898;28;20052;-86
2023/12/16 03:10:27;;;;;;;11.65;2.70;;;8.50;99.90;;;;;;6322518;28;20101;-85
2023/12/16 03:13:28;;;;;;;12.32;3.40;;;8.60;99.90;;;;;;6304260;28;20051;-84
2023/12/16 03:16:31;;;;;;;8.73;2.42;;;8.60;99.90;;;;;;6296385;28;20052;-84
2023/12/16 03:19:33;;;;;;;8.73;2.38;;;8.60;99.90;;;;;;6323062;28;20063;-85
2023/12/16 03:22:35;;;;;;;8.23;2.53;;;8.70;99.90;;;;;;6295998;28;20048;-87
2023/12/16 03:25:37;;;;;;;8.57;2.30;;;8.60;99.90;;;;;;6321194;28;20043;-86
2023/12/16 03:28:39;;;;;;;13.07;2.83;;;8.70;99.90;;;;;;6304892;28;20059;-85
2023/12/16 03:31:40;;;;;;;9.73;2.63;;;8.70;99.90;;;;;;6320046;28;20048;-84
2023/12/16 03:34:42;;;;;;;7.18;2.40;;;8.70;99.90;;;;;;6316989;28;20542;-84
2023/12/16 03:37:44;;;;;;;8.82;2.15;;;8.70;99.90;;;;;;6320243;28;20051;-86
2023/12/16 03:40:46;;;;;;;6.55;2.35;;;8.70;99.90;;;;;;6319316;28;20052;-85
2023/12/16 03:43:48;;;;;;;6.78;2.28;;;8.80;99.90;;;;;;6319553;28;20067;-85
2023/12/16 03:46:49;;;;;;;5.70;2.20;;;8.80;99.90;;;;;;6319355;28;20062;-86
2023/12/16 03:49:51;;;;;;;7.60;2.00;;;8.90;99.90;;;;;;6320572;28;20121;-84
2023/12/16 03:52:53;;;;;;;9.13;2.15;;;8.90;99.90;;;;;;6319962;28;20044;-84
2023/12/16 03:55:54;;;;;;;5.32;1.90;;;8.90;99.90;;;;;;6320672;28;20490;-85
2023/12/16 03:58:56;;;;;;;5.95;1.98;;;9.00;99.90;;;;;;6318861;28;20411;-86
2023/12/16 04:01:58;;;;;;;6.55;2.10;;;8.90;99.90;;;;;;6306490;28;20051;-85
2023/12/16 04:04:59;;;;;;;4.95;1.98;;;9.00;99.90;;;;;;6318097;28;20142;-85
2023/12/16 04:08:01;;;;;;;6.90;2.00;;;9.00;99.90;;;;;;6320229;28;20129;-83
2023/12/16 04:11:03;;;;;;;7.25;2.13;;;9.00;99.90;;;;;;6318647;28;20043;-86
2023/12/16 04:14:04;;;;;;;6.47;2.10;;;9.00;99.90;;;;;;6314492;28;20060;-85
2023/12/16 04:17:06;;;;;;;5.30;2.20;;;9.10;99.90;;;;;;6319668;28;20056;-85
2023/12/16 04:20:07;;;;;;;6.50;2.10;;;9.10;99.90;;;;;;6319987;28;20055;-85
2023/12/16 04:23:09;;;;;;;3.60;1.80;;;9.10;99.90;;;;;;6319201;28;20063;-84
2023/12/16 04:26:11;;;;;;;6.72;1.65;;;9.10;99.90;;;;;;6319252;28;20048;-84
2023/12/16 04:29:13;;;;;;;4.85;1.52;;;9.10;99.90;;;;;;6314907;28;20048;-86
2023/12/16 04:32:14;;;;;;;6.18;2.00;;;9.20;99.90;;;;;;6319531;28;20526;-84
2023/12/16 04:35:16;;;;;;;5.60;1.50;;;9.20;99.90;;;;;;6318246;28;20499;-85
2023/12/16 04:38:17;;;;;;;4.97;1.60;;;9.20;99.90;;;;;;6319038;28;20052;-86
2023/12/16 04:41:19;;;;;;;6.22;1.75;;;9.30;99.90;;;;;;6318563;28;20528;-85
2023/12/16 04:44:21;;;;;;;5.43;1.50;;;9.30;99.90;;;;;;6316637;28;21682;-84
2023/12/16 04:47:22;;;;;;;4.38;1.65;;;9.30;99.90;;;;;;6318994;28;20063;-83
2023/12/16 04:50:24;;;;;;;7.25;1.92;;;9.30;99.90;;;;;;6318805;28;20052;-83
2023/12/16 04:53:26;;;;;;;3.47;1.17;;;9.40;99.90;;;;;;6318875;28;20422;-86
2023/12/16 04:56:27;;;;;;;3.80;1.40;;;9.40;99.90;;;;;;6318177;28;20055;-84
2023/12/16 04:59:29;;;;;;;3.38;1.23;;;9.40;99.90;;;;;;6307411;28;20048;-86
2023/12/16 05:02:30;;;;;;;2.65;1.10;;;9.50;99.90;;;;;;6318718;28;20067;-85
2023/12/16 05:05:32;;;;;;;3.78;1.00;;;9.50;99.90;;;;;;6316420;28;20055;-84
2023/12/16 05:08:34;;;;;;;3.40;1.13;;;9.60;99.90;;;;;;6317814;28;20132;-84
2023/12/16 05:11:35;;;;;;;2.90;1.23;;;9.60;99.90;;;;;;6318680;28;20056;-85
2023/12/16 05:14:37;;;;;;;3.05;1.02;;;9.60;99.90;;;;;;6312897;28;20456;-85
2023/12/16 05:17:38;;;;;;;4.05;1.30;;;9.70;99.90;;;;;;6317746;28;20048;-85
2023/12/16 05:20:40;;;;;;;3.53;1.20;;;9.70;99.90;;;;;;6318861;28;20054;-86
2023/12/16 05:23:42;;;;;;;3.63;1.50;;;9.70;99.90;;;;;;6318494;28;20498;-82
2023/12/16 05:26:44;;;;;;;3.47;1.30;;;9.70;99.90;;;;;;6316188;28;20094;-83
2023/12/16 05:29:45;;;;;;;3.95;1.30;;;9.70;99.90;;;;;;6315844;28;20051;-84
2023/12/16 05:32:47;;;;;;;2.63;1.10;;;9.70;99.90;;;;;;6318111;28;20051;-85
2023/12/16 05:35:49;;;;;;;3.83;0.90;;;9.80;99.90;;;;;;6318140;28;20518;-85
2023/12/16 05:38:50;;;;;;;2.40;1.00;;;9.80;99.90;;;;;;6318253;28;20132;-84
2023/12/16 05:41:52;;;;;;;2.85;0.90;;;9.80;99.90;;;;;;6318575;28;20437;-84
2023/12/16 05:44:54;;;;;;;3.83;1.10;;;9.80;99.90;;;;;;6321347;28;20048;-87
2023/12/16 05:47:55;;;;;;;3.88;1.25;;;9.80;99.90;;;;;;6315562;28;20062;-84
2023/12/16 05:50:57;;;;;;;3.40;1.15;;;9.90;99.90;;;;;;6317997;28;20555;-84
2023/12/16 05:53:59;;;;;;;2.97;1.10;;;9.90;99.90;;;;;;6317671;28;20048;-84
2023/12/16 05:57:00;;;;;;;2.95;1.30;;;9.90;99.90;;;;;;6318470;28;20072;-84
2023/12/16 06:00:02;;;;;;;4.82;1.10;;;9.90;99.90;;;;;;6317929;28;20054;-84
2023/12/16 06:03:03;;;;;;;3.53;1.25;;;9.80;99.90;;;;;;6318362;28;20048;-85
2023/12/16 06:06:05;;;;;;;2.70;1.20;;;9.90;99.90;;;;;;6315798;28;20699;-84
2023/12/16 06:09:07;;;;;;;2.75;1.50;;;9.90;99.90;;;;;;6318895;28;20044;-86
2023/12/16 06:12:09;;;;;;;3.55;1.52;;;9.90;99.90;;;;;;6317546;28;20427;-86
2023/12/16 06:15:10;;;;;;;3.60;1.45;;;9.90;99.90;;;;;;6315739;28;20040;-86
2023/12/16 06:18:12;;;;;;;3.67;1.60;;;9.90;99.90;;;;;;6317676;28;20048;-86
2023/12/16 06:21:14;;;;;;;3.35;1.60;;;9.90;99.90;;;;;;6316813;28;20227;-85
2023/12/16 06:24:16;;;;;;;4.32;1.60;;;9.90;99.90;;;;;;6318553;28;20052;-85
2023/12/16 06:27:17;;;;;;;3.60;1.50;;;9.90;99.90;;;;;;6317532;28;20052;-85
2023/12/16 06:30:19;;;;;;;4.10;1.75;;;9.90;99.90;;;;;;6314970;28;20056;-85
2023/12/16 06:33:24;;;;;;;3.85;2.10;;;9.90;99.90;;;;;;6313089;28;20051;-85
2023/12/16 06:36:25;;;;;;;5.00;1.80;;;9.90;99.90;;;;;;6318996;28;20605;-84
2023/12/16 06:39:27;;;;;;;4.97;2.00;;;9.90;99.90;;;;;;6322804;28;20055;-84
2023/12/16 06:42:29;;;;;;;3.78;1.88;;;9.90;99.90;;;;;;6296991;28;20575;-84
2023/12/16 06:45:32;;;;;;;4.57;1.70;;;9.90;99.90;;;;;;6319599;28;20051;-84
2023/12/16 06:48:33;;;;;;;3.63;1.50;;;9.90;99.90;;;;;;6299021;28;20055;-86
2023/12/16 06:51:35;;;;;;;3.30;1.50;;;9.90;99.90;;;;;;6322611;28;20438;-85
2023/12/16 06:54:37;;;;;;;3.85;1.65;;;10.00;99.90;;;;;;6320369;28;20048;-84
2023/12/16 06:57:38;;;;;;;3.83;1.60;;;9.90;99.90;;;;;;6318417;28;20059;-83
2023/12/16 07:00:40;;;;;;;3.72;1.70;;;10.10;99.90;;;;;;6293402;28;20084;-84
2023/12/16 07:03:42;;;;;;;4.57;1.67;;;10.00;99.90;;;;;;6302102;28;20056;-84
2023/12/16 07:06:44;;;;;;;3.58;1.52;;;10.00;99.90;;;;;;6321596;28;20182;-83
2023/12/16 07:09:45;;;;;;;4.07;1.40;;;10.00;99.90;;;;;;6321940;28;20472;-83
2023/12/16 07:12:48;;;;;;;3.38;1.35;;;10.00;99.90;;;;;;6300633;28;20040;-83
2023/12/16 07:15:49;;;;;;;4.07;1.45;;;10.00;99.90;;;;;;6319486;28;20052;-84
2023/12/16 07:18:51;;;;;;;3.13;1.42;;;10.10;99.90;;;;;;6321062;28;20557;-84
2023/12/16 07:21:53;;;;;;;3.90;1.48;;;10.10;99.90;;;;;;6320069;28;20048;-84
2023/12/16 07:24:54;;;;;;;3.83;1.55;;;10.10;99.90;;;;;;6312892;28;20048;-84
2023/12/16 07:27:56;;;;;;;2.72;1.27;;;10.10;99.90;;;;;;6319839;28;20056;-85
2023/12/16 07:30:59;;;;;;;4.55;1.48;;;10.20;99.90;;;;;;6320590;28;20063;-85
2023/12/16 07:34:00;;;;;;;3.55;1.50;;;10.10;99.90;;;;;;6302881;28;20197;-85
2023/12/16 07:37:02;;;;;;;2.90;1.30;;;10.20;99.90;;;;;;6320130;28;20083;-84
2023/12/16 07:40:04;;;;;;;5.63;1.52;;;10.20;99.90;;;;;;6319757;28;20052;-84
2023/12/16 07:43:06;;;;;;;3.40;1.40;;;10.20;99.90;;;;;;6299285;28;20063;-85
2023/12/16 07:46:08;;;;;;;3.17;1.55;;;10.20;99.90;;;;;;6319864;28;20050;-84
2023/12/16 07:49:10;;;;;;;4.55;1.67;;;10.30;99.90;;;;;;6320321;28;20048;-84
2023/12/16 07:52:11;;;;;;;3.20;1.65;;;10.30;99.90;;;;;;6319956;28;20052;-85
2023/12/16 07:55:13;;;;;;;3.38;1.67;;;10.30;99.90;;;;;;6317176;28;20059;-84
2023/12/16 07:58:15;;;;;;;3.90;1.52;;;10.30;99.90;;;;;;6316152;28;20059;-86
2023/12/16 08:01:17;;;;;;;4.15;1.38;;;10.30;99.90;;;;;;6319857;28;20056;-86
2023/12/16 08:04:18;;;;;;;4.38;2.10;;;10.30;99.90;;;;;;6304243;28;20528;-85
2023/12/16 08:07:21;;;;;;;3.13;1.60;;;10.30;99.90;;;;;;6319075;28;20052;-85
2023/12/16 08:10:22;;;;;;;4.40;1.70;;;10.30;99.90;;;;;;6320647;28;20185;-84
2023/12/16 08:13:25;;;;;;;4.07;1.67;;;10.30;99.90;;;;;;6312236;28;20048;-85
2023/12/16 08:16:27;;;;;;;4.15;2.00;;;10.30;99.90;;;;;;6313511;28;20052;-86
2023/12/16 08:19:29;;;;;;;4.78;2.20;;;10.40;99.90;;;;;;6319077;28;20048;-88
2023/12/16 08:22:30;;;;;;;4.15;2.08;;;10.40;99.90;;;;;;6318444;28;20055;-85
2023/12/16 08:25:35;;;;;;;5.53;2.50;;;10.40;99.90;;;;;;6320060;28;20055;-86
2023/12/16 08:28:36;;;;;;;4.00;2.00;;;10.30;99.90;;;;;;6306312;28;20083;-86
2023/12/16 08:31:38;;;;;;;6.15;2.25;;;10.30;99.90;;;;;;6317560;28;20086;-87
2023/12/16 08:34:40;;;;;;;6.10;2.50;;;10.40;99.90;;;;;;6308973;28;20048;-85
2023/12/16 08:37:42;;;;;;;4.30;2.30;;;10.40;99.90;;;;;;6319875;28;20443;-85
2023/12/16 08:40:45;;;;;;;4.55;2.35;;;10.40;99.90;;;;;;6318256;28;20052;-88
2023/12/16 08:43:46;;;;;;;5.38;2.03;;;10.40;99.90;;;;;;6318363;28;20368;-85
2023/12/16 08:46:48;;;;;;;4.97;2.50;;;10.40;99.90;;;;;;6317830;28;20043;-86
2023/12/16 08:49:50;;;;;;;3.72;2.10;;;10.40;99.90;;;;;;6293523;28;20066;-87
2023/12/16 08:52:52;;;;;;;3.92;2.20;;;10.50;99.90;;;;;;6319148;28;20120;-85
2023/12/16 08:55:53;;;;;;;4.78;2.25;;;10.50;99.90;;;;;;6318745;28;20052;-86
2023/12/16 08:58:55;;;;;;;4.75;2.38;;;10.50;99.90;;;;;;6306479;28;20048;-85
2023/12/16 09:01:56;;;;;;;5.78;2.50;;;10.60;99.90;;;;;;6315636;28;20043;-86
2023/12/16 09:04:58;;;;;;;4.25;2.00;;;10.60;99.90;;;;;;6318630;28;20153;-85
2023/12/16 09:08:00;;;;;;;4.88;2.40;;;10.60;99.90;;;;;;6318778;28;20048;-86
2023/12/16 09:11:02;;;;;;;4.18;2.00;;;10.60;99.90;;;;;;6317619;28;20065;-86
2023/12/16 09:14:05;;;;;;;3.42;1.95;;;10.70;99.90;;;;;;6315140;28;20055;-84
2023/12/16 09:17:07;;;;;;;2.95;1.45;;;10.70;99.90;;;;;;6318110;28;20118;-84
2023/12/16 09:20:08;;;;;;;3.42;1.40;;;10.70;99.90;;;;;;6320737;28;20059;-86
2023/12/16 09:23:10;;;;;;;2.92;1.20;;;10.70;99.90;;;;;;6320109;28;20150;-85
2023/12/16 09:26:12;;;;;;;3.78;1.08;;;10.70;99.90;;;;;;6317532;28;20407;-85
2023/12/16 09:29:13;;;;;;;4.57;1.30;;;10.80;99.90;;;;;;6309626;28;20075;-85
2023/12/16 09:32:15;;;;;;;2.72;1.20;;;10.80;99.90;;;;;;6318456;28;20048;-85
2023/12/16 09:35:17;;;;;;;3.05;1.20;;;10.80;99.90;;;;;;6317144;28;20063;-85
2023/12/16 09:38:19;;;;;;;3.65;1.20;;;10.80;99.90;;;;;;6316579;28;20048;-85
2023/12/16 09:41:22;;;;;;;3.97;1.48;;;10.80;99.90;;;;;;6318337;28;20051;-85
2023/12/16 09:44:23;;;;;;;3.35;1.40;;;10.80;99.90;;;;;;6316994;28;20056;-86
2023/12/16 09:47:25;;;;;;;2.83;1.35;;;10.80;99.90;;;;;;6309119;28;20048;-87
2023/12/16 09:50:27;;;;;;;3.20;1.30;;;10.80;99.90;;;;;;6317263;28;20442;-86
2023/12/16 09:53:28;;;;;;;3.40;1.50;;;10.80;99.90;;;;;;6318325;28;20048;-85
2023/12/16 09:56:30;;;;;;;3.70;1.30;;;11.00;99.90;;;;;;6317514;28;20090;-84
2023/12/16 09:59:32;;;;;;;2.78;1.10;;;11.00;99.90;;;;;;6314589;28;20040;-87
2023/12/16 10:02:33;;;;;;;2.45;1.05;;;10.90;99.90;;;;;;6317199;28;20094;-82
2023/12/16 10:05:35;;;;;;;2.58;1.00;;;11.00;99.90;;;;;;6319524;28;20063;-85
2023/12/16 10:08:36;;;;;;;3.70;1.20;;;11.00;99.90;;;;;;6316635;28;20048;-83
2023/12/16 10:11:38;;;;;;;2.60;1.02;;;11.00;99.90;;;;;;6319746;28;20052;-84
2023/12/16 10:14:40;;;;;;;2.65;1.10;;;11.10;99.90;;;;;;6297255;28;20068;-83
2023/12/16 10:17:42;;;;;;;3.53;1.00;;;11.10;99.90;;;;;;6322847;28;20056;-86
2023/12/16 10:20:44;;;;;;;2.28;0.90;;;11.10;99.90;;;;;;6321524;28;20063;-85
2023/12/16 10:23:45;;;;;;;2.97;1.10;;;11.10;99.90;;;;;;6321545;28;20056;-84
2023/12/16 10:26:47;;;;;;;2.55;1.00;;;11.10;99.90;;;;;;6321319;28;20503;-85
2023/12/16 10:29:50;;;;;;;2.10;0.80;;;11.20;99.90;;;;;;6294396;28;20056;-85
2023/12/16 10:33:07;;;;;;;1.92;0.85;;;11.30;99.90;;;;;;6321539;28;20056;-85
2023/12/16 10:36:09;;;;;;;2.00;0.90;;;11.30;99.90;;;;;;6320841;28;20140;-84
2023/12/16 10:39:11;;;;;;;2.15;0.90;;;11.30;99.90;;;;;;6296860;28;20420;-84
2023/12/16 10:42:12;;;;;;;2.00;0.80;;;11.40;99.90;;;;;;6322235;28;20055;-85
2023/12/16 10:45:14;;;;;;;3.13;0.70;;;11.50;99.90;;;;;;6322565;28;20051;-84
2023/12/16 10:48:16;;;;;;;2.22;0.77;;;11.50;99.90;;;;;;6328745;28;20429;-84
2023/12/16 10:51:18;;;;;;;2.83;1.00;;;11.50;99.90;;;;;;6324679;28;20059;-82
2023/12/16 10:54:19;;;;;;;2.25;0.80;;;11.50;99.90;;;;;;6323141;28;20047;-84
2023/12/16 10:57:21;;;;;;;1.83;0.90;;;11.60;99.90;;;;;;6328128;28;20052;-83
2023/12/16 11:00:23;;;;;;;2.08;0.80;;;11.60;99.90;;;;;;6323293;28;20101;-84
2023/12/16 11:03:25;;;;;;;2.63;1.00;;;11.70;99.90;;;;;;6320783;28;20063;-86
2023/12/16 11:06:27;;;;;;;4.43;1.17;;;11.70;99.90;;;;;;6299848;28;20059;-87
2023/12/16 11:09:28;;;;;;;3.08;0.98;;;11.70;99.90;;;;;;6322472;28;20058;-86
2023/12/16 11:12:30;;;;;;;4.45;1.50;;;11.70;99.90;;;;;;6321127;28;20161;-85
2023/12/16 11:15:32;;;;;;;2.80;1.10;;;11.60;99.90;;;;;;6317512;28;20752;-85
2023/12/16 11:18:33;;;;;;;3.40;1.20;;;11.70;99.90;;;;;;6304098;28;20047;-84
2023/12/16 11:21:35;;;;;;;3.13;0.98;;;11.60;99.90;;;;;;6321137;28;20083;-85
2023/12/16 11:24:36;;;;;;;2.90;0.93;;;11.60;99.90;;;;;;6318705;28;20558;-85
2023/12/16 11:27:38;;;;;;;2.28;0.98;;;11.70;99.90;;;;;;6321001;28;20051;-85
2023/12/16 11:30:41;;;;;;;1.83;0.85;;;11.70;99.90;;;;;;6319593;28;20120;-87
2023/12/16 11:33:45;;;;;;;2.05;0.75;;;11.70;99.90;;;;;;6324509;28;20048;-93
2023/12/16 11:36:50;;;;;;;6.03;5.15;;;11.70;99.90;;;;;;6329845;28;20044;-86
2023/12/16 11:39:51;;;;;;;3.70;2.83;;;11.70;99.90;;;;;;6328143;28;20040;-92
2023/12/16 11:42:54;;;;;;;2.53;1.00;;;11.70;99.90;;;;;;6325442;28;20058;-88
2023/12/16 11:45:59;;;;;;;3.63;0.80;;;11.70;99.90;;;;;;6328838;28;20117;-86
2023/12/16 11:49:02;;;;;;;2.13;0.82;;;11.80;99.90;;;;;;6321282;28;20197;-85
2023/12/16 11:52:04;;;;;;;2.10;0.85;;;11.90;99.90;;;;;;6322005;28;20051;-84
2023/12/16 11:55:05;;;;;;;2.80;0.80;;;11.90;99.90;;;;;;6322064;28;20201;-87
2023/12/16 11:58:07;;;;;;;2.50;0.82;;;11.90;99.90;;;;;;6301138;28;20321;-85
2023/12/16 12:01:09;;;;;;;2.28;0.98;;;11.90;99.90;;;;;;6320290;28;20060;-85
2023/12/16 12:04:11;;;;;;;2.75;0.90;;;12.00;99.90;;;;;;6304548;28;20137;-82
2023/12/16 12:07:13;;;;;;;2.10;0.80;;;12.10;99.90;;;;;;6295683;28;20048;-81
2023/12/16 12:10:14;;;;;;;2.25;0.70;;;12.10;99.90;;;;;;6320870;28;20077;-83
2023/12/16 12:13:16;;;;;;;1.65;0.60;;;12.10;99.90;;;;;;6302323;28;20048;-85
2023/12/16 12:16:18;;;;;;;2.22;0.82;;;12.10;99.90;;;;;;6320951;28;20056;-86
2023/12/16 12:19:19;;;;;;;1.83;0.65;;;12.00;99.90;;;;;;6296588;28;20044;-85
2023/12/16 12:22:21;;;;;;;2.50;0.90;;;12.10;99.90;;;;;;6320856;28;20419;-84
2023/12/16 12:25:23;;;;;;;2.20;0.80;;;12.10;99.90;;;;;;6296996;28;20174;-86
2023/12/16 12:28:24;;;;;;;1.80;0.80;;;12.00;99.90;;;;;;6309224;28;20074;-83
2023/12/16 12:31:26;;;;;;;3.40;0.90;;;12.00;99.90;;;;;;6321020;28;20479;-86
2023/12/16 12:34:28;;;;;;;2.10;0.68;;;12.00;99.90;;;;;;6297780;28;20068;-83
2023/12/16 12:37:29;;;;;;;2.72;0.90;;;12.00;99.90;;;;;;6320332;28;20048;-85
2023/12/16 12:40:31;;;;;;;1.67;0.60;;;12.00;99.90;;;;;;6298209;28;20076;-87
2023/12/16 12:43:33;;;;;;;2.88;0.98;;;11.90;99.90;;;;;;6311966;28;20056;-85
2023/12/16 12:46:35;;;;;;;2.05;0.90;;;12.00;99.90;;;;;;6321330;28;20056;-85
2023/12/16 12:49:36;;;;;;;3.55;0.90;;;12.00;99.90;;;;;;6314743;28;20056;-85
2023/12/16 12:52:38;;;;;;;1.70;0.80;;;12.00;99.90;;;;;;6321052;28;20131;-83
2023/12/16 12:56:00;;;;;;;2.20;0.85;;;12.00;99.90;;;;;;6294055;28;20067;-84
2023/12/16 12:59:02;;;;;;;3.70;1.17;;;12.00;99.90;;;;;;6320273;28;20045;-82
2023/12/16 13:02:23;;;;;;;2.90;1.17;;;12.10;99.90;;;;;;6295829;28;20515;-85
2023/12/16 13:05:25;;;;;;;2.53;1.13;;;12.10;99.90;;;;;;6319998;28;20071;-83
2023/12/16 13:08:27;;;;;;;2.47;1.15;;;12.00;99.90;;;;;;6322063;28;20101;-85
2023/12/16 13:11:28;;;;;;;2.33;1.00;;;12.00;99.90;;;;;;6320990;28;20055;-84
2023/12/16 13:14:30;;;;;;;2.40;1.00;;;12.00;99.90;;;;;;6297129;28;20075;-84
2023/12/16 13:17:32;;;;;;;2.72;1.00;;;12.00;99.90;;;;;;6325971;28;20051;-85
2023/12/16 13:20:34;;;;;;;2.58;1.10;;;11.90;99.90;;;;;;6302615;28;20416;-85
2023/12/16 13:23:37;;;;;;;3.33;1.25;;;12.00;99.90;;;;;;6326339;28;20188;-87
2023/12/16 13:26:39;;;;;;;2.40;1.08;;;12.00;99.90;;;;;;6303476;28;20053;-84
2023/12/16 13:29:40;;;;;;;3.30;1.33;;;12.10;99.90;;;;;;6325384;28;20058;-82
2023/12/16 13:32:43;;;;;;;2.60;1.00;;;12.00;99.90;;;;;;6332604;28;20052;-86
2023/12/16 13:35:47;;;;;;;3.00;1.00;;;12.00;99.90;;;;;;6334155;28;20048;-87
2023/12/16 13:38:49;;;;;;;2.47;1.00;;;12.10;99.90;;;;;;6323446;28;20052;-88
2023/12/16 13:41:51;;;;;;;3.35;0.88;;;12.10;99.90;;;;;;6324416;28;20485;-87
2023/12/16 13:44:53;;;;;;;3.17;0.90;;;12.10;99.90;;;;;;6316284;28;20473;-87
2023/12/16 13:47:55;;;;;;;3.05;1.10;;;12.10;99.90;;;;;;6326891;28;20087;-90
2023/12/16 13:50:57;;;;;;;2.35;0.93;;;12.00;99.90;;;;;;6328931;28;20449;-86
2023/12/16 13:53:58;;;;;;;4.68;1.50;;;12.00;99.90;;;;;;6302867;28;20638;-86
2023/12/16 13:57:00;;;;;;;3.78;1.60;;;12.00;99.90;;;;;;6322567;28;20056;-84
2023/12/16 14:00:02;;;;;;;4.10;2.03;;;12.00;99.90;;;;;;6321040;28;20629;-84
2023/12/16 14:03:04;;;;;;;4.00;1.77;;;12.10;99.90;;;;;;6322055;28;20129;-84
2023/12/16 14:06:06;;;;;;;2.70;1.10;;;12.10;99.90;;;;;;6322919;28;20043;-86
2023/12/16 14:09:08;;;;;;;2.70;1.20;;;12.00;99.90;;;;;;6322663;28;20044;-85
2023/12/16 14:12:09;;;;;;;2.40;1.10;;;12.00;99.90;;;;;;6324356;28;20082;-86
2023/12/16 14:15:11;;;;;;;2.13;1.00;;;12.00;99.90;;;;;;6316812;28;20059;-86
2023/12/16 14:18:13;;;;;;;3.83;1.60;;;11.90;99.90;;;;;;6324608;28;20846;-86
2023/12/16 14:21:15;;;;;;;2.65;1.27;;;11.90;99.90;;;;;;6324835;28;20059;-86
2023/12/16 14:24:17;;;;;;;2.92;1.30;;;11.90;99.90;;;;;;6298366;28;20067;-87
2023/12/16 14:27:18;;;;;;;4.07;1.40;;;11.90;99.90;;;;;;6323967;28;20419;-88
2023/12/16 14:30:20;;;;;;;3.75;1.90;;;11.90;99.90;;;;;;6323076;28;20052;-87
2023/12/16 14:33:22;;;;;;;4.72;1.88;;;11.90;99.90;;;;;;6300099;28;20056;-85
2023/12/16 14:36:24;;;;;;;3.67;1.40;;;11.90;99.90;;;;;;6321624;28;20529;-88
2023/12/16 14:39:25;;;;;;;4.35;1.20;;;11.90;99.90;;;;;;6324002;28;20081;-87
2023/12/16 14:42:27;;;;;;;3.15;1.20;;;11.90;99.90;;;;;;6323238;28;20048;-87
2023/12/16 14:45:29;;;;;;;4.18;1.20;;;11.90;99.90;;;;;;6313773;28;20051;-86
2023/12/16 14:48:30;;;;;;;3.15;1.17;;;11.80;99.90;;;;;;6321160;28;20048;-86
2023/12/16 14:51:32;;;;;;;2.70;0.98;;;11.80;99.90;;;;;;6323266;28;20562;-87
2023/12/16 14:54:34;;;;;;;2.35;1.00;;;11.80;99.90;;;;;;6325576;28;20532;-87
2023/12/16 14:57:35;;;;;;;4.65;1.77;;;11.80;99.90;;;;;;6327066;28;20066;-85
2023/12/16 15:00:37;;;;;;;5.68;2.30;;;11.90;99.90;;;;;;6329530;28;20093;-86
2023/12/16 15:03:39;;;;;;;4.63;2.20;;;12.00;99.90;;;;;;6328298;28;20055;-91
2023/12/16 15:06:40;;;;;;;6.18;2.65;;;12.00;99.90;;;;;;6328057;28;20044;-87
2023/12/16 15:09:42;;;;;;;3.60;1.73;;;12.00;99.90;;;;;;6325688;28;20074;-89
2023/12/16 15:12:44;;;;;;;4.15;1.80;;;12.00;99.90;;;;;;6332692;28;20060;-88
2023/12/16 15:15:46;;;;;;;3.47;1.67;;;11.90;99.90;;;;;;6309918;28;20080;-88
2023/12/16 15:18:48;;;;;;;4.38;1.45;;;11.80;99.90;;;;;;6330860;28;20052;-87
2023/12/16 15:21:53;;;;;;;3.00;1.42;;;11.80;99.90;;;;;;6325471;28;20040;-85
2023/12/16 15:24:55;;;;;;;5.60;1.70;;;11.70;99.90;;;;;;6302130;28;20412;-87
2023/12/16 15:27:56;;;;;;;5.10;1.38;;;11.70;99.90;;;;;;6316472;28;20045;-87
2023/12/16 15:30:58;;;;;;;3.45;1.25;;;11.70;99.90;;;;;;6315964;28;20059;-85
2023/12/16 15:34:00;;;;;;;3.33;1.50;;;11.70;99.90;;;;;;6340211;28;20052;-87
2023/12/16 15:37:03;;;;;;;4.15;1.52;;;11.70;99.90;;;;;;6324819;28;20404;-87
2023/12/16 15:40:15;;;;;;;4.55;2.10;;;11.70;99.90;;;;;;6319506;28;20464;-88
2023/12/16 15:43:16;;;;;;;3.47;1.85;;;11.70;99.90;;;;;;6303702;28;20136;-88
2023/12/16 15:46:18;;;;;;;3.63;1.88;;;11.70;99.90;;;;;;6315853;28;20052;-88
2023/12/16 15:49:23;;;;;;;4.57;1.95;;;11.70;99.90;;;;;;6320348;28;20052;-88
2023/12/16 15:52:25;;;;;;;3.97;2.00;;;11.60;99.90;;;;;;6324728;28;20558;-87